sensor_id;sensor_type;location;lat;lon;timestamp;temperature;humidity
9971;DHT22;5026;51.494;11.974;2022-09-06T00:00:02;17.60;96.60
9971;DHT22;5026;51.494;11.974;2022-09-06T00:02:30;17.60;96.60
9971;DHT22;5026;51.494;11.974;2022-09-06T00:07:25;17.50;96.60
9971;DHT22;5026;51.494;11.974;2022-09-06T00:09:53;17.70;96.70
9971;DHT22;5026;51.494;11.974;2022-09-06T00:17:16;17.50;96.60
9971;DHT22;5026;51.494;11.974;2022-09-06T00:19:43;17.50;96.60
9971;DHT22;5026;51.494;11.974;2022-09-06T00:22:10;17.50;96.60
9971;DHT22;5026;51.494;11.974;2022-09-06T00:24:37;17.50;96.60
9971;DHT22;5026;51.494;11.974;2022-09-06T00:27:06;17.50;96.60
9971;DHT22;5026;51.494;11.974;2022-09-06T00:29:34;17.50;96.60
9971;DHT22;5026;51.494;11.974;2022-09-06T00:32:01;17.50;96.60
9971;DHT22;5026;51.494;11.974;2022-09-06T00:34:29;17.50;96.60
9971;DHT22;5026;51.494;11.974;2022-09-06T00:36:55;17.50;96.50
9971;DHT22;5026;51.494;11.974;2022-09-06T00:41:49;17.40;96.50
9971;DHT22;5026;51.494;11.974;2022-09-06T00:44:18;17.40;96.60
9971;DHT22;5026;51.494;11.974;2022-09-06T00:46:46;17.30;96.60
9971;DHT22;5026;51.494;11.974;2022-09-06T00:49:17;17.30;96.60
9971;DHT22;5026;51.494;11.974;2022-09-06T00:51:50;17.30;96.60
9971;DHT22;5026;51.494;11.974;2022-09-06T00:54:17;17.30;96.60
9971;DHT22;5026;51.494;11.974;2022-09-06T00:56:44;17.30;96.60
9971;DHT22;5026;51.494;11.974;2022-09-06T00:59:12;17.30;96.50
9971;DHT22;5026;51.494;11.974;2022-09-06T01:01:40;13.50;95.20
9971;DHT22;5026;51.494;11.974;2022-09-06T01:06:43;17.30;96.60
9971;DHT22;5026;51.494;11.974;2022-09-06T01:09:22;17.30;96.50
9971;DHT22;5026;51.494;11.974;2022-09-06T01:12:03;17.30;96.50
9971;DHT22;5026;51.494;11.974;2022-09-06T01:14:43;17.30;96.60
9971;DHT22;5026;51.494;11.974;2022-09-06T01:17:21;17.20;96.60
9971;DHT22;5026;51.494;11.974;2022-09-06T01:20:20;17.20;96.60
9971;DHT22;5026;51.494;11.974;2022-09-06T01:25:51;17.20;96.70
9971;DHT22;5026;51.494;11.974;2022-09-06T01:28:30;17.20;96.70
9971;DHT22;5026;51.494;11.974;2022-09-06T01:31:10;17.20;96.70
9971;DHT22;5026;51.494;11.974;2022-09-06T01:33:45;17.20;96.70
9971;DHT22;5026;51.494;11.974;2022-09-06T01:36:14;17.20;96.70
9971;DHT22;5026;51.494;11.974;2022-09-06T01:41:10;17.20;96.70
9971;DHT22;5026;51.494;11.974;2022-09-06T01:43:40;17.20;96.70
9971;DHT22;5026;51.494;11.974;2022-09-06T01:46:15;17.30;96.60
9971;DHT22;5026;51.494;11.974;2022-09-06T01:48:58;17.40;96.50
9971;DHT22;5026;51.494;11.974;2022-09-06T01:51:30;17.40;96.50
9971;DHT22;5026;51.494;11.974;2022-09-06T01:54:06;17.50;96.50
9971;DHT22;5026;51.494;11.974;2022-09-06T01:56:41;17.50;96.40
9971;DHT22;5026;51.494;11.974;2022-09-06T01:59:32;17.40;96.40
9971;DHT22;5026;51.494;11.974;2022-09-06T02:02:04;17.30;96.60
9971;DHT22;5026;51.494;11.974;2022-09-06T02:04:40;17.30;96.70
9971;DHT22;5026;51.494;11.974;2022-09-06T02:07:14;17.20;96.70
9971;DHT22;5026;51.494;11.974;2022-09-06T02:09:43;17.10;96.70
9971;DHT22;5026;51.494;11.974;2022-09-06T02:12:13;17.10;96.80
9971;DHT22;5026;51.494;11.974;2022-09-06T02:14:48;17.00;96.80
9971;DHT22;5026;51.494;11.974;2022-09-06T02:17:20;16.90;96.90
9971;DHT22;5026;51.494;11.974;2022-09-06T02:19:52;16.80;96.90
9971;DHT22;5026;51.494;11.974;2022-09-06T02:22:23;16.90;96.90
9971;DHT22;5026;51.494;11.974;2022-09-06T02:24:52;16.80;96.90
9971;DHT22;5026;51.494;11.974;2022-09-06T02:27:19;16.80;96.90
9971;DHT22;5026;51.494;11.974;2022-09-06T02:29:47;16.80;97.00
9971;DHT22;5026;51.494;11.974;2022-09-06T02:32:17;16.70;96.90
9971;DHT22;5026;51.494;11.974;2022-09-06T02:34:45;16.70;96.90
9971;DHT22;5026;51.494;11.974;2022-09-06T02:37:13;16.60;96.90
9971;DHT22;5026;51.494;11.974;2022-09-06T02:39:41;16.60;96.90
9971;DHT22;5026;51.494;11.974;2022-09-06T02:42:09;16.60;96.90
9971;DHT22;5026;51.494;11.974;2022-09-06T02:44:36;16.60;97.00
9971;DHT22;5026;51.494;11.974;2022-09-06T02:47:05;16.60;96.90
9971;DHT22;5026;51.494;11.974;2022-09-06T02:49:32;16.60;96.90
9971;DHT22;5026;51.494;11.974;2022-09-06T02:59:20;16.60;97.00
9971;DHT22;5026;51.494;11.974;2022-09-06T03:04:16;16.50;97.10
9971;DHT22;5026;51.494;11.974;2022-09-06T03:11:37;16.50;97.10
9971;DHT22;5026;51.494;11.974;2022-09-06T03:21:27;16.30;97.30
9971;DHT22;5026;51.494;11.974;2022-09-06T03:23:54;16.30;97.40
9971;DHT22;5026;51.494;11.974;2022-09-06T03:28:48;16.30;97.40
9971;DHT22;5026;51.494;11.974;2022-09-06T03:31:15;16.30;97.40
9971;DHT22;5026;51.494;11.974;2022-09-06T03:33:42;16.20;97.40
9971;DHT22;5026;51.494;11.974;2022-09-06T03:38:38;16.20;97.50
9971;DHT22;5026;51.494;11.974;2022-09-06T03:41:04;16.20;97.50
9971;DHT22;5026;51.494;11.974;2022-09-06T03:43:31;16.10;97.50
9971;DHT22;5026;51.494;11.974;2022-09-06T03:45:58;16.10;97.50
9971;DHT22;5026;51.494;11.974;2022-09-06T03:48:28;16.10;97.60
9971;DHT22;5026;51.494;11.974;2022-09-06T03:50:57;16.00;97.60
9971;DHT22;5026;51.494;11.974;2022-09-06T03:53:25;16.10;97.70
9971;DHT22;5026;51.494;11.974;2022-09-06T03:55:55;16.10;97.70
9971;DHT22;5026;51.494;11.974;2022-09-06T03:58:27;16.10;97.70
9971;DHT22;5026;51.494;11.974;2022-09-06T04:01:02;16.10;97.70
9971;DHT22;5026;51.494;11.974;2022-09-06T04:03:29;16.00;97.70
9971;DHT22;5026;51.494;11.974;2022-09-06T04:05:56;16.10;97.80
9971;DHT22;5026;51.494;11.974;2022-09-06T04:08:23;16.10;97.80
9971;DHT22;5026;51.494;11.974;2022-09-06T04:10:52;16.10;97.80
9971;DHT22;5026;51.494;11.974;2022-09-06T04:13:21;16.10;97.80
9971;DHT22;5026;51.494;11.974;2022-09-06T04:15:49;16.10;97.80
9971;DHT22;5026;51.494;11.974;2022-09-06T04:18:17;16.00;97.80
9971;DHT22;5026;51.494;11.974;2022-09-06T04:20:46;14.90;97.50
9971;DHT22;5026;51.494;11.974;2022-09-06T04:25:44;15.90;97.90
9971;DHT22;5026;51.494;11.974;2022-09-06T04:28:11;15.80;97.90
9971;DHT22;5026;51.494;11.974;2022-09-06T04:30:39;15.80;98.00
9971;DHT22;5026;51.494;11.974;2022-09-06T04:33:06;15.80;98.00
9971;DHT22;5026;51.494;11.974;2022-09-06T04:38:01;15.90;98.00
9971;DHT22;5026;51.494;11.974;2022-09-06T04:40:29;15.80;98.00
9971;DHT22;5026;51.494;11.974;2022-09-06T04:45:23;15.70;98.00
9971;DHT22;5026;51.494;11.974;2022-09-06T04:47:52;15.80;98.10
9971;DHT22;5026;51.494;11.974;2022-09-06T04:50:19;15.80;98.10
9971;DHT22;5026;51.494;11.974;2022-09-06T04:55:13;15.80;98.10
9971;DHT22;5026;51.494;11.974;2022-09-06T05:00:07;15.80;98.10
9971;DHT22;5026;51.494;11.974;2022-09-06T05:02:35;15.80;98.10
9971;DHT22;5026;51.494;11.974;2022-09-06T05:05:04;15.80;98.20
9971;DHT22;5026;51.494;11.974;2022-09-06T05:12:25;15.80;98.00
9971;DHT22;5026;51.494;11.974;2022-09-06T05:14:52;15.80;98.00
9971;DHT22;5026;51.494;11.974;2022-09-06T05:17:19;15.80;97.90
9971;DHT22;5026;51.494;11.974;2022-09-06T05:19:46;15.80;98.00
9971;DHT22;5026;51.494;11.974;2022-09-06T05:22:14;15.80;97.90
9971;DHT22;5026;51.494;11.974;2022-09-06T05:29:37;16.00;97.70
9971;DHT22;5026;51.494;11.974;2022-09-06T05:32:04;16.10;97.60
9971;DHT22;5026;51.494;11.974;2022-09-06T05:34:30;15.90;97.70
9971;DHT22;5026;51.494;11.974;2022-09-06T05:36:57;15.80;97.90
9971;DHT22;5026;51.494;11.974;2022-09-06T05:39:26;15.80;97.90
9971;DHT22;5026;51.494;11.974;2022-09-06T05:41:52;15.80;97.90
9971;DHT22;5026;51.494;11.974;2022-09-06T05:44:19;15.80;97.90
9971;DHT22;5026;51.494;11.974;2022-09-06T05:51:40;15.80;97.90
9971;DHT22;5026;51.494;11.974;2022-09-06T05:54:10;16.00;97.80
9971;DHT22;5026;51.494;11.974;2022-09-06T05:56:38;16.00;97.80
9971;DHT22;5026;51.494;11.974;2022-09-06T06:04:00;16.20;97.70
9971;DHT22;5026;51.494;11.974;2022-09-06T06:06:28;16.30;97.50
9971;DHT22;5026;51.494;11.974;2022-09-06T06:08:56;16.50;97.40
9971;DHT22;5026;51.494;11.974;2022-09-06T06:11:24;16.60;97.30
9971;DHT22;5026;51.494;11.974;2022-09-06T06:13:53;16.50;97.30
9971;DHT22;5026;51.494;11.974;2022-09-06T06:16:21;16.30;97.50
9971;DHT22;5026;51.494;11.974;2022-09-06T06:21:17;16.10;97.70
9971;DHT22;5026;51.494;11.974;2022-09-06T06:23:45;16.20;97.90
9971;DHT22;5026;51.494;11.974;2022-09-06T06:31:10;16.40;97.50
9971;DHT22;5026;51.494;11.974;2022-09-06T06:33:37;16.40;97.60
9971;DHT22;5026;51.494;11.974;2022-09-06T06:36:06;16.40;97.60
9971;DHT22;5026;51.494;11.974;2022-09-06T06:38:35;16.30;97.60
9971;DHT22;5026;51.494;11.974;2022-09-06T06:41:04;16.30;97.60
9971;DHT22;5026;51.494;11.974;2022-09-06T06:43:31;16.60;97.40
9971;DHT22;5026;51.494;11.974;2022-09-06T06:46:02;16.60;97.40
9971;DHT22;5026;51.494;11.974;2022-09-06T06:48:30;16.80;97.20
9971;DHT22;5026;51.494;11.974;2022-09-06T06:50:57;16.70;97.20
9971;DHT22;5026;51.494;11.974;2022-09-06T06:53:24;16.90;97.10
9971;DHT22;5026;51.494;11.974;2022-09-06T06:55:51;17.30;97.00
9971;DHT22;5026;51.494;11.974;2022-09-06T06:58:19;17.70;96.60
9971;DHT22;5026;51.494;11.974;2022-09-06T07:00:46;18.40;96.10
9971;DHT22;5026;51.494;11.974;2022-09-06T07:03:13;18.40;95.80
9971;DHT22;5026;51.494;11.974;2022-09-06T07:05:41;17.80;95.80
9971;DHT22;5026;51.494;11.974;2022-09-06T07:08:10;17.50;95.90
9971;DHT22;5026;51.494;11.974;2022-09-06T07:13:04;17.20;96.30
9971;DHT22;5026;51.494;11.974;2022-09-06T07:17:58;16.90;96.80
9971;DHT22;5026;51.494;11.974;2022-09-06T07:20:25;17.00;96.90
9971;DHT22;5026;51.494;11.974;2022-09-06T07:23:01;17.00;96.70
9971;DHT22;5026;51.494;11.974;2022-09-06T07:27:57;17.40;96.70
9971;DHT22;5026;51.494;11.974;2022-09-06T07:30:26;17.30;96.60
9971;DHT22;5026;51.494;11.974;2022-09-06T07:32:53;17.30;96.60
9971;DHT22;5026;51.494;11.974;2022-09-06T07:35:19;17.50;96.50
9971;DHT22;5026;51.494;11.974;2022-09-06T07:37:53;17.50;96.50
9971;DHT22;5026;51.494;11.974;2022-09-06T07:40:22;17.60;96.30
9971;DHT22;5026;51.494;11.974;2022-09-06T07:45:16;17.40;96.10
9971;DHT22;5026;51.494;11.974;2022-09-06T07:47:43;17.40;96.30
9971;DHT22;5026;51.494;11.974;2022-09-06T07:50:10;17.90;96.20
9971;DHT22;5026;51.494;11.974;2022-09-06T07:55:05;18.10;95.60
9971;DHT22;5026;51.494;11.974;2022-09-06T07:57:33;18.10;95.70
9971;DHT22;5026;51.494;11.974;2022-09-06T08:00:01;18.10;95.60
9971;DHT22;5026;51.494;11.974;2022-09-06T08:02:28;18.00;95.60
9971;DHT22;5026;51.494;11.974;2022-09-06T08:04:56;18.10;95.70
9971;DHT22;5026;51.494;11.974;2022-09-06T08:07:23;18.10;95.60
9971;DHT22;5026;51.494;11.974;2022-09-06T08:09:50;18.00;95.70
9971;DHT22;5026;51.494;11.974;2022-09-06T08:12:17;18.00;95.60
9971;DHT22;5026;51.494;11.974;2022-09-06T08:14:45;18.20;95.50
9971;DHT22;5026;51.494;11.974;2022-09-06T08:17:12;18.60;95.30
9971;DHT22;5026;51.494;11.974;2022-09-06T08:19:39;18.80;95.20
9971;DHT22;5026;51.494;11.974;2022-09-06T08:22:06;19.20;95.00
9971;DHT22;5026;51.494;11.974;2022-09-06T08:24:33;19.30;94.60
9971;DHT22;5026;51.494;11.974;2022-09-06T08:27:01;18.70;94.70
9971;DHT22;5026;51.494;11.974;2022-09-06T08:29:28;18.70;94.80
9971;DHT22;5026;51.494;11.974;2022-09-06T08:31:56;18.70;94.70
9971;DHT22;5026;51.494;11.974;2022-09-06T08:34:23;18.50;94.60
9971;DHT22;5026;51.494;11.974;2022-09-06T08:36:49;18.80;94.80
9971;DHT22;5026;51.494;11.974;2022-09-06T08:39:16;19.40;94.50
9971;DHT22;5026;51.494;11.974;2022-09-06T08:41:47;19.70;94.10
9971;DHT22;5026;51.494;11.974;2022-09-06T08:44:18;21.20;93.60
9971;DHT22;5026;51.494;11.974;2022-09-06T08:46:53;21.20;92.60
9971;DHT22;5026;51.494;11.974;2022-09-06T08:49:23;21.10;92.90
9971;DHT22;5026;51.494;11.974;2022-09-06T08:54:50;22.20;92.90
9971;DHT22;5026;51.494;11.974;2022-09-06T08:57:30;22.30;92.10
9971;DHT22;5026;51.494;11.974;2022-09-06T09:00:04;22.90;91.90
9971;DHT22;5026;51.494;11.974;2022-09-06T09:02:41;23.00;92.10
9971;DHT22;5026;51.494;11.974;2022-09-06T09:05:18;25.20;90.40
9971;DHT22;5026;51.494;11.974;2022-09-06T09:07:50;24.50;88.40
9971;DHT22;5026;51.494;11.974;2022-09-06T09:10:22;21.90;90.20
9971;DHT22;5026;51.494;11.974;2022-09-06T09:12:53;21.10;90.90
9971;DHT22;5026;51.494;11.974;2022-09-06T09:15:20;22.00;91.30
9971;DHT22;5026;51.494;11.974;2022-09-06T09:17:49;22.60;90.90
9971;DHT22;5026;51.494;11.974;2022-09-06T09:20:19;21.70;91.10
9971;DHT22;5026;51.494;11.974;2022-09-06T09:22:47;21.70;91.50
9971;DHT22;5026;51.494;11.974;2022-09-06T09:25:17;21.40;91.80
9971;DHT22;5026;51.494;11.974;2022-09-06T09:27:46;21.40;91.90
9971;DHT22;5026;51.494;11.974;2022-09-06T09:30:15;21.20;92.00
9971;DHT22;5026;51.494;11.974;2022-09-06T09:32:44;21.50;92.00
9971;DHT22;5026;51.494;11.974;2022-09-06T09:35:27;21.70;91.70
9971;DHT22;5026;51.494;11.974;2022-09-06T09:38:00;20.90;92.20
9971;DHT22;5026;51.494;11.974;2022-09-06T09:40:32;21.00;92.20
9971;DHT22;5026;51.494;11.974;2022-09-06T09:43:14;20.70;92.50
9971;DHT22;5026;51.494;11.974;2022-09-06T09:45:43;20.70;92.70
9971;DHT22;5026;51.494;11.974;2022-09-06T09:48:23;21.20;92.70
9971;DHT22;5026;51.494;11.974;2022-09-06T09:50:54;21.60;92.60
9971;DHT22;5026;51.494;11.974;2022-09-06T09:53:22;21.70;92.40
9971;DHT22;5026;51.494;11.974;2022-09-06T09:55:55;21.60;92.50
9971;DHT22;5026;51.494;11.974;2022-09-06T09:58:31;21.70;92.60
9971;DHT22;5026;51.494;11.974;2022-09-06T10:01:09;22.00;92.60
9971;DHT22;5026;51.494;11.974;2022-09-06T10:03:37;22.20;92.30
9971;DHT22;5026;51.494;11.974;2022-09-06T10:06:09;22.40;92.40
9971;DHT22;5026;51.494;11.974;2022-09-06T10:08:39;22.10;92.30
9971;DHT22;5026;51.494;11.974;2022-09-06T10:11:11;22.00;92.50
9971;DHT22;5026;51.494;11.974;2022-09-06T10:13:38;21.90;92.60
9971;DHT22;5026;51.494;11.974;2022-09-06T10:16:07;22.20;92.60
9971;DHT22;5026;51.494;11.974;2022-09-06T10:18:35;22.00;92.60
9971;DHT22;5026;51.494;11.974;2022-09-06T10:21:05;22.10;92.90
9971;DHT22;5026;51.494;11.974;2022-09-06T10:23:52;22.30;92.70
9971;DHT22;5026;51.494;11.974;2022-09-06T10:26:31;22.30;92.60
9971;DHT22;5026;51.494;11.974;2022-09-06T10:29:04;22.30;92.70
9971;DHT22;5026;51.494;11.974;2022-09-06T10:31:45;22.20;92.80
9971;DHT22;5026;51.494;11.974;2022-09-06T10:34:33;22.40;92.80
9971;DHT22;5026;51.494;11.974;2022-09-06T10:37:12;22.70;92.70
9971;DHT22;5026;51.494;11.974;2022-09-06T10:39:47;23.00;92.60
9971;DHT22;5026;51.494;11.974;2022-09-06T10:42:21;23.20;92.30
9971;DHT22;5026;51.494;11.974;2022-09-06T10:45:02;23.20;92.30
9971;DHT22;5026;51.494;11.974;2022-09-06T10:47:36;23.40;92.10
9971;DHT22;5026;51.494;11.974;2022-09-06T10:50:04;23.60;92.10
9971;DHT22;5026;51.494;11.974;2022-09-06T10:52:36;23.80;92.10
9971;DHT22;5026;51.494;11.974;2022-09-06T10:55:05;24.50;91.70
9971;DHT22;5026;51.494;11.974;2022-09-06T10:57:38;24.50;91.90
9971;DHT22;5026;51.494;11.974;2022-09-06T11:00:07;25.00;90.90
9971;DHT22;5026;51.494;11.974;2022-09-06T11:02:41;25.00;91.10
9971;DHT22;5026;51.494;11.974;2022-09-06T11:05:15;25.00;90.80
9971;DHT22;5026;51.494;11.974;2022-09-06T11:07:48;24.10;90.70
9971;DHT22;5026;51.494;11.974;2022-09-06T11:10:19;24.20;91.00
9971;DHT22;5026;51.494;11.974;2022-09-06T11:12:49;24.50;90.90
9971;DHT22;5026;51.494;11.974;2022-09-06T11:15:19;24.10;91.00
9971;DHT22;5026;51.494;11.974;2022-09-06T11:17:54;24.10;91.20
9971;DHT22;5026;51.494;11.974;2022-09-06T11:20:26;24.20;91.10
9971;DHT22;5026;51.494;11.974;2022-09-06T11:23:12;24.00;91.20
9971;DHT22;5026;51.494;11.974;2022-09-06T11:26:19;24.80;91.70
9971;DHT22;5026;51.494;11.974;2022-09-06T11:28:53;24.30;91.40
9971;DHT22;5026;51.494;11.974;2022-09-06T11:31:24;24.60;90.90
9971;DHT22;5026;51.494;11.974;2022-09-06T11:34:05;24.50;90.90
9971;DHT22;5026;51.494;11.974;2022-09-06T11:36:37;24.70;90.90
9971;DHT22;5026;51.494;11.974;2022-09-06T11:39:08;25.00;90.80
9971;DHT22;5026;51.494;11.974;2022-09-06T11:41:37;25.10;90.70
9971;DHT22;5026;51.494;11.974;2022-09-06T11:44:06;25.40;90.60
9971;DHT22;5026;51.494;11.974;2022-09-06T11:46:58;25.70;90.40
9971;DHT22;5026;51.494;11.974;2022-09-06T11:49:33;25.40;90.50
9971;DHT22;5026;51.494;11.974;2022-09-06T11:54:45;25.30;91.00
9971;DHT22;5026;51.494;11.974;2022-09-06T11:57:15;25.20;91.30
9971;DHT22;5026;51.494;11.974;2022-09-06T11:59:56;25.40;91.10
9971;DHT22;5026;51.494;11.974;2022-09-06T12:02:31;25.80;90.90
9971;DHT22;5026;51.494;11.974;2022-09-06T12:05:20;25.40;90.80
9971;DHT22;5026;51.494;11.974;2022-09-06T12:08:12;24.80;91.20
9971;DHT22;5026;51.494;11.974;2022-09-06T12:10:55;24.80;91.30
9971;DHT22;5026;51.494;11.974;2022-09-06T12:13:39;24.90;91.30
9971;DHT22;5026;51.494;11.974;2022-09-06T12:16:07;25.10;91.30
9971;DHT22;5026;51.494;11.974;2022-09-06T12:18:54;24.90;91.40
9971;DHT22;5026;51.494;11.974;2022-09-06T12:21:39;24.70;91.40
9971;DHT22;5026;51.494;11.974;2022-09-06T12:24:07;24.40;91.60
9971;DHT22;5026;51.494;11.974;2022-09-06T12:26:46;24.60;91.70
9971;DHT22;5026;51.494;11.974;2022-09-06T12:29:16;24.40;91.60
9971;DHT22;5026;51.494;11.974;2022-09-06T12:31:50;24.60;91.50
9971;DHT22;5026;51.494;11.974;2022-09-06T12:34:21;24.50;91.60
9971;DHT22;5026;51.494;11.974;2022-09-06T12:36:54;24.20;91.70
9971;DHT22;5026;51.494;11.974;2022-09-06T12:41:54;24.20;91.80
9971;DHT22;5026;51.494;11.974;2022-09-06T12:44:27;24.30;91.90
9971;DHT22;5026;51.494;11.974;2022-09-06T12:47:01;24.60;91.70
9971;DHT22;5026;51.494;11.974;2022-09-06T12:52:06;24.90;91.60
9971;DHT22;5026;51.494;11.974;2022-09-06T12:57:13;24.80;91.70
9971;DHT22;5026;51.494;11.974;2022-09-06T12:59:46;24.70;91.60
9971;DHT22;5026;51.494;11.974;2022-09-06T13:02:16;24.70;91.30
9971;DHT22;5026;51.494;11.974;2022-09-06T13:04:47;24.80;91.40
9971;DHT22;5026;51.494;11.974;2022-09-06T13:07:18;24.80;91.40
9971;DHT22;5026;51.494;11.974;2022-09-06T13:09:48;24.80;91.60
9971;DHT22;5026;51.494;11.974;2022-09-06T13:12:23;24.80;91.50
9971;DHT22;5026;51.494;11.974;2022-09-06T13:14:52;24.60;91.50
9971;DHT22;5026;51.494;11.974;2022-09-06T13:17:24;24.60;91.60
9971;DHT22;5026;51.494;11.974;2022-09-06T13:19:51;24.70;91.40
9971;DHT22;5026;51.494;11.974;2022-09-06T13:22:39;24.50;90.90
9971;DHT22;5026;51.494;11.974;2022-09-06T13:25:14;24.70;90.90
9971;DHT22;5026;51.494;11.974;2022-09-06T13:27:43;24.60;90.30
9971;DHT22;5026;51.494;11.974;2022-09-06T13:30:37;24.70;90.00
9971;DHT22;5026;51.494;11.974;2022-09-06T13:33:07;24.70;89.70
9971;DHT22;5026;51.494;11.974;2022-09-06T13:35:44;24.70;89.40
9971;DHT22;5026;51.494;11.974;2022-09-06T13:38:32;24.70;87.80
9971;DHT22;5026;51.494;11.974;2022-09-06T13:40:59;24.80;87.60
9971;DHT22;5026;51.494;11.974;2022-09-06T13:43:28;25.00;87.60
9971;DHT22;5026;51.494;11.974;2022-09-06T13:46:05;25.10;87.10
9971;DHT22;5026;51.494;11.974;2022-09-06T13:48:32;25.10;86.90
9971;DHT22;5026;51.494;11.974;2022-09-06T13:51:02;25.10;86.60
9971;DHT22;5026;51.494;11.974;2022-09-06T13:55:57;24.80;85.70
9971;DHT22;5026;51.494;11.974;2022-09-06T13:58:24;24.60;86.30
9971;DHT22;5026;51.494;11.974;2022-09-06T14:00:53;27.00;86.90
9971;DHT22;5026;51.494;11.974;2022-09-06T14:03:23;24.60;84.40
9971;DHT22;5026;51.494;11.974;2022-09-06T14:05:50;24.70;84.50
9971;DHT22;5026;51.494;11.974;2022-09-06T14:13:13;24.70;84.70
9971;DHT22;5026;51.494;11.974;2022-09-06T14:18:08;24.90;85.50
9971;DHT22;5026;51.494;11.974;2022-09-06T14:23:02;24.90;85.40
9971;DHT22;5026;51.494;11.974;2022-09-06T14:25:30;25.00;85.50
9971;DHT22;5026;51.494;11.974;2022-09-06T14:30:27;24.80;86.50
9971;DHT22;5026;51.494;11.974;2022-09-06T14:32:53;24.80;86.30
9971;DHT22;5026;51.494;11.974;2022-09-06T14:35:22;24.80;86.40
9971;DHT22;5026;51.494;11.974;2022-09-06T14:37:49;24.80;86.60
9971;DHT22;5026;51.494;11.974;2022-09-06T14:47:37;24.50;87.10
9971;DHT22;5026;51.494;11.974;2022-09-06T14:50:05;24.60;87.50
9971;DHT22;5026;51.494;11.974;2022-09-06T14:52:34;24.70;87.70
9971;DHT22;5026;51.494;11.974;2022-09-06T14:57:28;24.90;87.60
9971;DHT22;5026;51.494;11.974;2022-09-06T14:59:55;24.90;87.70
9971;DHT22;5026;51.494;11.974;2022-09-06T15:02:22;25.00;87.80
9971;DHT22;5026;51.494;11.974;2022-09-06T15:07:17;24.80;87.80
9971;DHT22;5026;51.494;11.974;2022-09-06T15:09:46;24.60;87.70
9971;DHT22;5026;51.494;11.974;2022-09-06T15:12:15;24.70;87.60
9971;DHT22;5026;51.494;11.974;2022-09-06T15:17:09;24.70;83.60
9971;DHT22;5026;51.494;11.974;2022-09-06T15:19:36;24.60;83.10
9971;DHT22;5026;51.494;11.974;2022-09-06T15:22:04;24.50;84.10
9971;DHT22;5026;51.494;11.974;2022-09-06T15:24:32;24.50;84.90
9971;DHT22;5026;51.494;11.974;2022-09-06T15:27:00;24.40;85.40
9971;DHT22;5026;51.494;11.974;2022-09-06T15:29:28;24.30;86.10
9971;DHT22;5026;51.494;11.974;2022-09-06T15:31:55;24.20;86.70
9971;DHT22;5026;51.494;11.974;2022-09-06T15:34:23;24.20;86.60
9971;DHT22;5026;51.494;11.974;2022-09-06T15:36:51;23.90;86.10
9971;DHT22;5026;51.494;11.974;2022-09-06T15:44:16;23.70;86.20
9971;DHT22;5026;51.494;11.974;2022-09-06T15:46:46;23.60;86.20
9971;DHT22;5026;51.494;11.974;2022-09-06T15:49:16;23.60;85.30
9971;DHT22;5026;51.494;11.974;2022-09-06T15:51:43;23.60;85.40
9971;DHT22;5026;51.494;11.974;2022-09-06T15:54:11;23.60;85.80
9971;DHT22;5026;51.494;11.974;2022-09-06T15:56:40;23.70;86.50
9971;DHT22;5026;51.494;11.974;2022-09-06T16:01:36;23.60;86.90
9971;DHT22;5026;51.494;11.974;2022-09-06T16:04:04;23.60;87.10
9971;DHT22;5026;51.494;11.974;2022-09-06T16:06:33;23.60;86.90
9971;DHT22;5026;51.494;11.974;2022-09-06T16:09:03;23.60;87.30
9971;DHT22;5026;51.494;11.974;2022-09-06T16:11:31;23.70;88.00
9971;DHT22;5026;51.494;11.974;2022-09-06T16:14:00;23.60;88.20
9971;DHT22;5026;51.494;11.974;2022-09-06T16:16:27;23.70;88.60
9971;DHT22;5026;51.494;11.974;2022-09-06T16:18:56;23.70;88.90
9971;DHT22;5026;51.494;11.974;2022-09-06T16:21:25;23.50;89.60
9971;DHT22;5026;51.494;11.974;2022-09-06T16:23:56;23.50;90.00
9971;DHT22;5026;51.494;11.974;2022-09-06T16:26:25;24.60;90.60
9971;DHT22;5026;51.494;11.974;2022-09-06T16:28:52;23.40;90.20
9971;DHT22;5026;51.494;11.974;2022-09-06T16:31:20;23.40;90.40
9971;DHT22;5026;51.494;11.974;2022-09-06T16:33:47;23.40;90.30
9971;DHT22;5026;51.494;11.974;2022-09-06T16:36:17;23.30;90.40
9971;DHT22;5026;51.494;11.974;2022-09-06T16:41:13;23.20;90.80
9971;DHT22;5026;51.494;11.974;2022-09-06T16:43:41;23.20;90.90
9971;DHT22;5026;51.494;11.974;2022-09-06T16:46:08;25.70;91.90
9971;DHT22;5026;51.494;11.974;2022-09-06T16:51:10;23.00;91.20
9971;DHT22;5026;51.494;11.974;2022-09-06T16:53:40;23.00;91.40
9971;DHT22;5026;51.494;11.974;2022-09-06T16:56:08;22.90;91.40
9971;DHT22;5026;51.494;11.974;2022-09-06T16:58:35;22.90;91.70
9971;DHT22;5026;51.494;11.974;2022-09-06T17:03:31;22.80;92.00
9971;DHT22;5026;51.494;11.974;2022-09-06T17:05:57;22.80;92.20
9971;DHT22;5026;51.494;11.974;2022-09-06T17:10:53;22.60;92.60
9971;DHT22;5026;51.494;11.974;2022-09-06T17:15:53;22.60;92.70
9971;DHT22;5026;51.494;11.974;2022-09-06T17:18:38;22.50;92.80
9971;DHT22;5026;51.494;11.974;2022-09-06T17:21:05;22.50;92.90
9971;DHT22;5026;51.494;11.974;2022-09-06T17:26:01;22.40;93.30
9971;DHT22;5026;51.494;11.974;2022-09-06T17:30:59;22.30;93.70
9971;DHT22;5026;51.494;11.974;2022-09-06T17:33:26;22.20;93.90
9971;DHT22;5026;51.494;11.974;2022-09-06T17:35:53;22.10;94.00
9971;DHT22;5026;51.494;11.974;2022-09-06T17:40:56;22.00;94.40
9971;DHT22;5026;51.494;11.974;2022-09-06T17:43:25;21.90;94.70
9971;DHT22;5026;51.494;11.974;2022-09-06T17:50:46;21.60;95.50
9971;DHT22;5026;51.494;11.974;2022-09-06T17:53:19;21.50;95.80
9971;DHT22;5026;51.494;11.974;2022-09-06T17:58:16;21.40;96.10
9971;DHT22;5026;51.494;11.974;2022-09-06T18:00:44;21.20;96.20
9971;DHT22;5026;51.494;11.974;2022-09-06T18:05:39;21.20;96.60
9971;DHT22;5026;51.494;11.974;2022-09-06T18:08:06;21.10;96.80
9971;DHT22;5026;51.494;11.974;2022-09-06T18:10:34;21.10;96.90
9971;DHT22;5026;51.494;11.974;2022-09-06T18:13:02;21.00;97.20
9971;DHT22;5026;51.494;11.974;2022-09-06T18:15:29;21.00;97.30
9971;DHT22;5026;51.494;11.974;2022-09-06T18:17:58;20.90;97.40
9971;DHT22;5026;51.494;11.974;2022-09-06T18:20:25;21.00;97.70
9971;DHT22;5026;51.494;11.974;2022-09-06T18:22:52;20.90;97.70
9971;DHT22;5026;51.494;11.974;2022-09-06T18:25:19;20.80;97.70
9971;DHT22;5026;51.494;11.974;2022-09-06T18:30:14;20.70;98.00
9971;DHT22;5026;51.494;11.974;2022-09-06T18:32:41;20.60;98.10
9971;DHT22;5026;51.494;11.974;2022-09-06T18:35:09;20.60;98.30
9971;DHT22;5026;51.494;11.974;2022-09-06T18:37:36;20.70;98.50
9971;DHT22;5026;51.494;11.974;2022-09-06T18:40:04;20.60;98.50
9971;DHT22;5026;51.494;11.974;2022-09-06T18:42:32;20.60;98.60
9971;DHT22;5026;51.494;11.974;2022-09-06T18:44:59;20.50;98.70
9971;DHT22;5026;51.494;11.974;2022-09-06T18:47:26;20.50;98.80
9971;DHT22;5026;51.494;11.974;2022-09-06T18:49:53;20.50;98.80
9971;DHT22;5026;51.494;11.974;2022-09-06T18:52:21;20.50;98.90
9971;DHT22;5026;51.494;11.974;2022-09-06T18:54:48;20.40;99.00
9971;DHT22;5026;51.494;11.974;2022-09-06T18:59:43;20.30;99.20
9971;DHT22;5026;51.494;11.974;2022-09-06T19:07:04;20.20;99.50
9971;DHT22;5026;51.494;11.974;2022-09-06T19:09:33;20.10;99.50